Bia?ystok-Krywlany Airport


Codes: EPBK/QYY
Name: Bia?ystok-Krywlany Airport
City: Bia?ystok
Country: Poland
Elevation: 502 ft.

Photos at Bia?ystok-Krywlany Airport


   Photos courtesy of SpottingLog. You can add your own sightings and photos by signing up for a free trial today.



No photos found.

Weather at Bia?ystok-Krywlany Airport


Time (UTC)DescriptionTempratureWindCloud coverageVisibilityPressureHumidity
16-Jun-2024 00:00Overcast Clouds13°C7 mph, SE97%10000m1014hPa81%
16-Jun-2024 03:00Scattered Clouds12°C7 mph, SE38%10000m1014hPa88%
16-Jun-2024 06:00Clear Sky18°C7 mph, SE9%10000m1013hPa69%
16-Jun-2024 09:00Scattered Clouds22°C7 mph, SE46%10000m1013hPa50%
16-Jun-2024 12:00Scattered Clouds24°C7 mph, SE30%10000m1012hPa42%
16-Jun-2024 15:00Overcast Clouds22°C2 mph, SW95%10000m1011hPa61%
16-Jun-2024 18:00Overcast Clouds19°C4 mph, E95%10000m1011hPa69%
16-Jun-2024 21:00Clear Sky16°C4 mph, E9%10000m1012hPa81%
17-Jun-2024 00:00Scattered Clouds15°C2 mph, SW25%10000m1012hPa84%
17-Jun-2024 03:00Overcast Clouds16°C4 mph, NW96%10000m1012hPa82%
17-Jun-2024 06:00Overcast Clouds16°C4 mph, NW99%10000m1014hPa80%
17-Jun-2024 09:00Overcast Clouds21°C7 mph, NW90%10000m1014hPa63%
17-Jun-2024 12:00Light Rain23°C9 mph, NW66%10000m1014hPa59%
17-Jun-2024 15:00Broken Clouds24°C9 mph, NW53%10000m1014hPa50%
17-Jun-2024 18:00Scattered Clouds19°C4 mph, NW38%10000m1015hPa71%
17-Jun-2024 21:00Few Clouds16°C2 mph, W20%10000m1016hPa81%
18-Jun-2024 00:00Scattered Clouds15°C4 mph, SW26%10000m1016hPa84%
18-Jun-2024 03:00Scattered Clouds15°C4 mph, SW33%10000m1017hPa85%
18-Jun-2024 06:00Broken Clouds20°C7 mph, SW52%10000m1017hPa66%
18-Jun-2024 09:00Overcast Clouds23°C9 mph, W96%10000m1017hPa62%
18-Jun-2024 12:00Light Rain24°C13 mph, SW70%10000m1016hPa58%
18-Jun-2024 15:00Light Rain24°C11 mph, W96%10000m1016hPa61%
18-Jun-2024 18:00Light Rain19°C4 mph, NW100%10000m1015hPa87%
18-Jun-2024 21:00Light Rain16°C7 mph, S58%10000m1015hPa95%
19-Jun-2024 00:00Broken Clouds16°C4 mph, S73%10000m1014hPa93%
19-Jun-2024 03:00Light Rain16°C9 mph, S87%10000m1011hPa97%
19-Jun-2024 06:00Light Rain19°C11 mph, S93%10000m1009hPa92%
19-Jun-2024 09:00Light Rain19°C13 mph, SW100%5844m1007hPa93%
19-Jun-2024 12:00Heavy Intensity Rain16°C18 mph, NW94%10000m1012hPa75%
19-Jun-2024 15:00Light Rain16°C13 mph, NW90%10000m1013hPa82%
19-Jun-2024 18:00Light Rain15°C9 mph, NW47%10000m1014hPa79%
19-Jun-2024 21:00Clear Sky11°C7 mph, W3%10000m1016hPa89%
20-Jun-2024 00:00Clear Sky10°C9 mph, W8%10000m1017hPa89%
20-Jun-2024 03:00Scattered Clouds10°C9 mph, W25%10000m1017hPa94%
20-Jun-2024 06:00Few Clouds13°C13 mph, W13%10000m1017hPa68%
20-Jun-2024 09:00Clear Sky18°C16 mph, W4%10000m1016hPa50%
20-Jun-2024 12:00Clear Sky20°C16 mph, W4%10000m1015hPa50%
20-Jun-2024 15:00Clear Sky21°C13 mph, W0%10000m1014hPa56%
20-Jun-2024 18:00Clear Sky18°C9 mph, SW1%10000m1013hPa71%
20-Jun-2024 21:00Clear Sky14°C9 mph, SW2%10000m1013hPa77%